YXR weather

Earlton (Timiskaming Regional) Airport
Earlton, Ontario, Canada

Public forecast

Using degrees Celsius for public forecast. Weather courtesy of forecast.io.

METAR (pilot weather report)

Retrieved 2019/05/22 16:00 UTC (39 minutes ago):

CYXR 221600Z AUTO 13012KT 9SM CLR 15/03 A3023 RMK SLP244

TAF (pilot weather forecast)

Retrieved 2019/05/22 12:39 UTC (4 hours ago):

TAF CYXR 221138Z 2212/2224 33005KT P6SM BKN240 FM221500 13010KT P6SM BKN180 FM222100 14010KT P6SM BKN040 OVC120 TEMPO 2221/2224 P6SM -SHRA RMK FCST BASED ON AUTO OBS. NXT FCST BY 221800Z